createdAt,value
2019-04-22T00:00:51.012Z,34.90
2019-04-22T00:03:19.910Z,35.10
2019-04-22T00:06:10.177Z,35.20
2019-04-22T00:08:36.159Z,35.40
2019-04-22T00:11:12.882Z,35.40
2019-04-22T00:13:40.192Z,35.50
2019-04-22T00:15:58.419Z,35.60
2019-04-22T00:18:47.991Z,35.70
2019-04-22T00:20:59.385Z,35.70
2019-04-22T00:23:24.920Z,35.80
2019-04-22T00:25:58.707Z,35.90
2019-04-22T00:28:24.958Z,36.00
2019-04-22T00:30:48.512Z,36.00
2019-04-22T00:33:24.942Z,36.20
2019-04-22T00:35:49.348Z,36.20
2019-04-22T00:38:26.561Z,36.30
2019-04-22T00:40:49.095Z,36.40
2019-04-22T00:43:21.083Z,36.50
2019-04-22T00:45:44.847Z,36.60
2019-04-22T00:48:21.060Z,36.70
2019-04-22T00:50:46.700Z,36.80
2019-04-22T00:53:16.338Z,36.40
2019-04-22T00:55:59.238Z,36.90
2019-04-22T00:58:26.193Z,43.60
2019-04-22T01:01:00.229Z,37.00
2019-04-22T01:03:19.690Z,37.20
2019-04-22T01:05:51.061Z,37.90
2019-04-22T01:08:12.937Z,37.40
2019-04-22T01:10:47.932Z,37.40
2019-04-22T01:13:13.387Z,37.50
2019-04-22T01:15:40.273Z,37.60
2019-04-22T01:18:03.693Z,37.60
2019-04-22T01:22:59.006Z,37.80
2019-04-22T01:25:26.403Z,37.90
2019-04-22T01:27:53.078Z,38.00
2019-04-22T01:30:18.665Z,38.10
2019-04-22T01:32:40.110Z,37.50
2019-04-22T01:35:12.993Z,38.20
2019-04-22T01:37:49.553Z,38.40
2019-04-22T01:40:25.333Z,38.30
2019-04-22T01:42:55.781Z,38.40
2019-04-22T01:45:22.616Z,38.50
2019-04-22T01:47:49.038Z,38.70
2019-04-22T01:50:18.994Z,38.80
2019-04-22T01:52:46.430Z,38.70
2019-04-22T01:55:22.230Z,38.80
2019-04-22T01:57:37.675Z,38.90
2019-04-22T02:00:00.965Z,39.00
2019-04-22T02:02:39.957Z,39.30
2019-04-22T02:05:12.241Z,39.30
2019-04-22T02:07:37.115Z,39.60
2019-04-22T02:10:04.030Z,39.60
2019-04-22T02:12:35.458Z,39.80
2019-04-22T02:15:00.741Z,40.50
2019-04-22T02:17:32.904Z,39.80
2019-04-22T02:19:59.081Z,39.30
2019-04-22T02:22:47.624Z,40.00
2019-04-22T02:24:51.072Z,40.00
2019-04-22T02:27:26.170Z,40.00
2019-04-22T02:29:47.644Z,40.20
2019-04-22T02:34:59.626Z,40.40
2019-04-22T02:37:21.236Z,40.40
2019-04-22T02:39:47.219Z,40.40
2019-04-22T02:44:43.234Z,40.70
2019-04-22T02:47:15.699Z,40.80
2019-04-22T02:49:37.569Z,40.80
2019-04-22T02:52:09.411Z,40.90
2019-04-22T02:57:04.431Z,41.00
2019-04-22T02:59:34.884Z,41.10
2019-04-22T03:01:53.246Z,40.60
2019-04-22T03:04:22.535Z,40.70
2019-04-22T03:07:10.861Z,42.00
2019-04-22T03:09:24.138Z,41.50
2019-04-22T03:14:33.819Z,41.50
2019-04-22T03:16:50.418Z,41.70
2019-04-22T03:19:26.051Z,41.80
2019-04-22T03:21:50.273Z,41.70
2019-04-22T03:26:40.908Z,41.70
2019-04-22T03:29:13.325Z,41.80
2019-04-22T03:35:15.978Z,41.80
2019-04-22T03:41:58.544Z,42.10
2019-04-22T03:44:27.019Z,42.20
2019-04-22T03:46:53.422Z,42.30
2019-04-22T03:49:28.868Z,42.40
2019-04-22T03:51:49.850Z,42.50
2019-04-22T03:54:32.923Z,42.60
2019-04-22T03:57:07.037Z,42.50
2019-04-22T03:59:09.762Z,42.70
2019-04-22T04:01:46.331Z,42.70
2019-04-22T04:04:09.139Z,42.80
2019-04-22T04:06:37.035Z,42.90
2019-04-22T04:09:05.949Z,43.00
2019-04-22T04:11:37.720Z,43.00
2019-04-22T04:14:11.970Z,43.10
2019-04-22T04:16:21.504Z,43.20
2019-04-22T04:19:00.213Z,43.20
2019-04-22T04:21:26.024Z,43.30
2019-04-22T04:26:26.779Z,43.50
2019-04-22T04:31:17.750Z,43.60
2019-04-22T04:33:38.293Z,43.70
2019-04-22T04:38:40.296Z,43.70
2019-04-22T04:40:58.308Z,43.60
2019-04-22T04:43:35.083Z,43.70
2019-04-22T04:46:07.308Z,43.70
2019-04-22T04:48:32.694Z,43.70
2019-04-22T04:53:20.487Z,43.90
2019-04-22T04:55:46.755Z,44.10
2019-04-22T05:03:21.697Z,44.50
2019-04-22T05:05:45.636Z,44.50
2019-04-22T05:08:12.755Z,44.60
2019-04-22T05:15:33.367Z,44.80
2019-04-22T05:22:51.069Z,44.80
2019-04-22T05:25:25.143Z,45.30
2019-04-22T05:27:51.013Z,45.10
2019-04-22T05:30:27.497Z,44.30
2019-04-22T05:32:52.266Z,44.20
2019-04-22T05:35:25.054Z,43.80
2019-04-22T05:37:54.726Z,43.50
2019-04-22T05:42:34.501Z,42.90
2019-04-22T05:45:11.731Z,42.50
2019-04-22T05:47:32.405Z,42.00
2019-04-22T05:50:02.544Z,41.60
2019-04-22T05:52:31.674Z,41.30
2019-04-22T05:55:02.473Z,41.50
2019-04-22T05:57:37.210Z,40.40
2019-04-22T05:59:59.599Z,40.00
2019-04-22T06:02:39.354Z,39.30
2019-04-22T06:05:01.608Z,38.90
2019-04-22T06:07:25.379Z,38.40
2019-04-22T06:09:53.414Z,37.90
2019-04-22T06:12:17.451Z,37.60
2019-04-22T06:14:47.958Z,36.90
2019-04-22T06:17:18.282Z,36.00
2019-04-22T06:19:49.137Z,35.30
2019-04-22T06:22:25.463Z,34.90
2019-04-22T06:24:42.087Z,34.70
2019-04-22T06:27:14.866Z,34.30
2019-04-22T06:29:40.198Z,33.90
2019-04-22T06:32:23.086Z,34.10
2019-04-22T06:34:35.940Z,33.00
2019-04-22T06:37:07.281Z,32.50
2019-04-22T06:39:34.459Z,32.00
2019-04-22T06:42:01.012Z,31.40
2019-04-22T06:44:29.795Z,30.90
2019-04-22T06:47:00.677Z,30.40
2019-04-22T06:49:33.444Z,29.90
2019-04-22T06:52:00.153Z,29.50
2019-04-22T06:54:27.952Z,29.10
2019-04-22T06:59:18.373Z,27.90
2019-04-22T07:01:50.354Z,28.00
2019-04-22T07:04:14.480Z,27.60
2019-04-22T07:06:52.385Z,27.10
2019-04-22T07:11:36.723Z,26.40
2019-04-22T07:14:06.897Z,25.30
2019-04-22T07:16:38.084Z,24.70
2019-04-22T07:19:09.251Z,24.90
2019-04-22T07:21:30.482Z,24.10
2019-04-22T07:24:22.802Z,23.80
2019-04-22T07:26:24.981Z,23.80
2019-04-22T07:28:56.421Z,23.50
2019-04-22T07:31:30.563Z,23.40
2019-04-22T07:33:56.295Z,23.00
2019-04-22T07:38:43.927Z,22.30
2019-04-22T07:41:23.069Z,22.10
2019-04-22T07:44:07.394Z,21.70
2019-04-22T07:46:13.427Z,26.30
2019-04-22T07:51:16.306Z,20.10
2019-04-22T07:53:41.516Z,20.10
2019-04-22T07:56:16.145Z,19.60
2019-04-22T07:58:36.001Z,19.40
2019-04-22T08:01:09.069Z,19.00
2019-04-22T08:03:37.861Z,18.50
2019-04-22T08:06:16.811Z,18.10
2019-04-22T08:08:29.161Z,17.70
2019-04-22T08:13:32.633Z,16.60
2019-04-22T08:15:58.767Z,16.80
2019-04-22T08:20:55.372Z,16.60
2019-04-22T08:23:23.750Z,16.40
2019-04-22T08:25:49.549Z,16.30
2019-04-22T08:28:17.549Z,16.00
2019-04-22T08:30:47.614Z,15.90
2019-04-22T08:33:15.974Z,15.90
2019-04-22T08:38:14.911Z,15.50
2019-04-22T08:40:43.207Z,15.00
2019-04-22T08:43:12.632Z,14.80
2019-04-22T08:45:38.500Z,14.70
2019-04-22T08:48:01.742Z,14.70
2019-04-22T08:50:38.901Z,14.70
2019-04-22T08:53:11.087Z,14.70
2019-04-22T08:55:40.453Z,14.80
2019-04-22T09:00:37.359Z,15.10
2019-04-22T09:03:15.974Z,15.10
2019-04-22T09:08:01.450Z,15.00
2019-04-22T09:10:36.194Z,14.80
2019-04-22T09:15:28.185Z,14.40
2019-04-22T09:17:55.926Z,14.60
2019-04-22T09:20:20.709Z,14.70
2019-04-22T09:22:48.722Z,15.10
2019-04-22T09:25:06.602Z,15.00
2019-04-22T09:27:42.912Z,15.10
2019-04-22T09:30:17.002Z,15.20
2019-04-22T09:35:09.485Z,14.90
2019-04-22T09:37:39.270Z,14.70
2019-04-22T09:40:04.513Z,14.70
2019-04-22T09:42:31.856Z,14.40
2019-04-22T09:45:04.687Z,14.20
2019-04-22T09:50:01.951Z,14.30
2019-04-22T09:52:22.494Z,14.40
2019-04-22T09:55:01.661Z,14.30
2019-04-22T09:57:21.488Z,14.30
2019-04-22T09:59:51.000Z,14.20
2019-04-22T10:02:26.284Z,14.00
2019-04-22T10:04:48.260Z,14.00
2019-04-22T10:07:16.457Z,13.90
2019-04-22T10:12:10.267Z,13.90
2019-04-22T10:14:39.575Z,13.90
2019-04-22T10:16:59.871Z,13.80
2019-04-22T10:19:29.985Z,13.70
2019-04-22T10:21:57.352Z,13.80
2019-04-22T10:24:29.684Z,13.80
2019-04-22T10:26:56.800Z,13.90
2019-04-22T10:29:24.424Z,13.90
2019-04-22T10:31:55.808Z,13.90
2019-04-22T10:34:11.762Z,13.90
2019-04-22T10:36:27.784Z,13.90
2019-04-22T10:38:54.671Z,13.80
2019-04-22T10:41:20.966Z,13.80
2019-04-22T10:43:47.602Z,13.70
2019-04-22T10:46:13.989Z,13.70
2019-04-22T10:48:41.988Z,13.60
2019-04-22T10:51:08.594Z,13.60
2019-04-22T10:53:35.590Z,13.60
2019-04-22T10:56:03.242Z,13.50
2019-04-22T10:58:30.710Z,13.50
2019-04-22T11:00:58.209Z,13.40
2019-04-22T11:03:24.738Z,13.30
2019-04-22T11:05:53.809Z,13.40
2019-04-22T11:08:27.280Z,13.50
2019-04-22T11:11:03.620Z,13.50
2019-04-22T11:13:16.107Z,13.60
2019-04-22T11:15:42.497Z,13.50
2019-04-22T11:18:09.564Z,13.60
2019-04-22T11:20:35.902Z,13.60
2019-04-22T11:23:02.684Z,13.70
2019-04-22T11:25:29.930Z,13.70
2019-04-22T11:27:57.763Z,13.80
2019-04-22T11:30:27.937Z,13.80
2019-04-22T11:32:54.093Z,13.70
2019-04-22T11:35:21.889Z,13.90
2019-04-22T11:37:48.671Z,13.90
2019-04-22T11:40:23.326Z,14.00
2019-04-22T11:42:43.944Z,14.00
2019-04-22T11:45:11.057Z,14.10
2019-04-22T11:47:37.487Z,14.10
2019-04-22T11:50:07.968Z,14.30
2019-04-22T11:52:35.077Z,14.40
2019-04-22T11:55:01.864Z,14.50
2019-04-22T11:57:28.811Z,14.40
2019-04-22T11:59:56.585Z,14.50
2019-04-22T12:02:25.417Z,14.70
2019-04-22T12:04:53.944Z,14.80
2019-04-22T12:07:21.305Z,14.90
2019-04-22T12:09:47.912Z,15.00
2019-04-22T12:12:15.831Z,15.10
2019-04-22T12:14:42.508Z,15.20
2019-04-22T12:17:08.772Z,15.80
2019-04-22T12:19:35.211Z,15.50
2019-04-22T12:22:02.825Z,15.70
2019-04-22T12:24:30.246Z,15.80
2019-04-22T12:26:58.045Z,16.00
2019-04-22T12:29:24.814Z,16.30
2019-04-22T12:31:51.479Z,16.50
2019-04-22T12:34:17.620Z,16.60
2019-04-22T12:36:44.812Z,16.60
2019-04-22T12:39:11.553Z,16.70
2019-04-22T12:41:38.330Z,16.60
2019-04-22T12:44:05.275Z,16.80
2019-04-22T12:46:32.341Z,17.00
2019-04-22T12:49:00.186Z,17.20
2019-04-22T12:51:27.232Z,17.40
2019-04-22T12:53:55.031Z,17.60
2019-04-22T12:56:21.758Z,17.70
2019-04-22T12:58:49.644Z,17.80
2019-04-22T13:01:16.969Z,17.90
2019-04-22T13:03:44.600Z,18.10
2019-04-22T13:06:12.001Z,18.20
2019-04-22T13:08:38.584Z,18.30
2019-04-22T13:11:11.995Z,18.40
2019-04-22T13:13:34.572Z,18.60
2019-04-22T13:16:00.862Z,18.60
2019-04-22T13:18:37.129Z,18.80
2019-04-22T13:20:56.650Z,18.90
2019-04-22T13:23:23.517Z,19.10
2019-04-22T13:25:49.666Z,19.20
2019-04-22T13:28:15.837Z,19.40
2019-04-22T13:30:41.973Z,19.50
2019-04-22T13:33:08.421Z,20.10
2019-04-22T13:35:36.108Z,19.80
2019-04-22T13:38:02.448Z,20.00
2019-04-22T13:40:28.931Z,23.20
2019-04-22T13:42:55.661Z,20.10
2019-04-22T13:45:22.375Z,20.30
2019-04-22T13:48:08.792Z,20.50
2019-04-22T13:50:49.429Z,20.60
2019-04-22T13:53:34.334Z,20.70
2019-04-22T13:55:45.486Z,20.90
2019-04-22T13:57:58.258Z,21.20
2019-04-22T14:00:26.726Z,21.20
2019-04-22T14:03:12.872Z,21.20
2019-04-22T14:05:42.527Z,21.50
2019-04-22T14:08:10.711Z,21.60
2019-04-22T14:10:38.475Z,21.60
2019-04-22T14:13:05.720Z,21.80
2019-04-22T14:15:33.875Z,22.20
2019-04-22T14:18:00.977Z,21.60
2019-04-22T14:20:29.496Z,21.60
2019-04-22T14:22:56.675Z,21.70
2019-04-22T14:25:23.028Z,21.70
2019-04-22T14:27:57.742Z,21.70
2019-04-22T14:30:18.861Z,21.70
2019-04-22T14:32:45.777Z,21.70
2019-04-22T14:35:13.502Z,21.70
2019-04-22T14:37:40.280Z,22.60
2019-04-22T14:40:09.485Z,22.00
2019-04-22T14:42:56.036Z,28.70
2019-04-22T14:45:41.778Z,22.20
2019-04-22T14:48:00.881Z,22.20
2019-04-22T14:50:32.858Z,22.10
2019-04-22T14:52:58.959Z,22.10
2019-04-22T14:55:13.787Z,22.20
2019-04-22T14:57:35.888Z,22.40
2019-04-22T15:00:09.470Z,22.50
2019-04-22T15:02:35.752Z,23.00
2019-04-22T15:05:03.818Z,22.70
2019-04-22T15:07:30.802Z,22.70
2019-04-22T15:09:57.751Z,22.80
2019-04-22T15:12:31.009Z,22.80
2019-04-22T15:14:53.413Z,22.90
2019-04-22T15:17:31.329Z,23.00
2019-04-22T15:20:19.533Z,23.00
2019-04-22T15:22:46.479Z,23.00
2019-04-22T15:25:12.874Z,23.00
2019-04-22T15:27:39.419Z,23.10
2019-04-22T15:30:07.585Z,23.30
2019-04-22T15:32:33.824Z,23.40
2019-04-22T15:35:01.739Z,23.00
2019-04-22T15:37:28.281Z,23.40
2019-04-22T15:39:56.654Z,23.40
2019-04-22T15:42:28.118Z,23.40
2019-04-22T15:44:51.677Z,23.40
2019-04-22T15:47:18.828Z,23.40
2019-04-22T15:49:45.896Z,23.40
2019-04-22T15:52:12.509Z,23.50
2019-04-22T15:54:39.441Z,23.60
2019-04-22T15:57:06.706Z,23.50
2019-04-22T15:59:52.184Z,23.70
2019-04-22T16:02:02.696Z,23.70
2019-04-22T16:04:30.736Z,23.70
2019-04-22T16:06:57.158Z,23.80
2019-04-22T16:09:24.891Z,23.70
2019-04-22T16:11:51.876Z,24.50
2019-04-22T16:14:25.516Z,29.10
2019-04-22T16:16:46.432Z,28.90
2019-04-22T16:19:14.071Z,29.20
2019-04-22T16:21:51.282Z,25.40
2019-04-22T16:24:11.119Z,26.00
2019-04-22T16:26:40.196Z,26.20
2019-04-22T16:29:09.422Z,25.60
2019-04-22T16:31:35.773Z,25.20
2019-04-22T16:34:02.661Z,31.00
2019-04-22T16:36:29.223Z,24.50
2019-04-22T16:38:56.997Z,24.60
2019-04-22T16:41:24.510Z,24.70
2019-04-22T16:43:50.870Z,24.80
2019-04-22T16:46:17.250Z,24.70
2019-04-22T16:48:43.494Z,24.80
2019-04-22T16:51:09.945Z,24.80
2019-04-22T16:53:37.060Z,24.80
2019-04-22T16:56:04.800Z,25.30
2019-04-22T16:58:31.020Z,25.00
2019-04-22T17:00:58.607Z,24.90
2019-04-22T17:03:28.798Z,25.00
2019-04-22T17:06:07.734Z,24.90
2019-04-22T17:08:34.859Z,24.90
2019-04-22T17:11:01.957Z,24.90
2019-04-22T17:13:30.942Z,24.90
2019-04-22T17:15:59.042Z,25.00
2019-04-22T17:18:25.435Z,25.00
2019-04-22T17:20:52.943Z,25.00
2019-04-22T17:23:19.995Z,25.00
2019-04-22T17:25:46.383Z,25.00
2019-04-22T17:28:13.243Z,25.10
2019-04-22T17:30:39.808Z,25.20
2019-04-22T17:33:06.145Z,25.20
2019-04-22T17:35:34.051Z,25.20
2019-04-22T17:38:10.157Z,25.30
2019-04-22T17:40:45.704Z,25.40
2019-04-22T17:43:32.671Z,25.40
2019-04-22T17:45:59.732Z,25.50
2019-04-22T17:48:40.496Z,25.60
2019-04-22T17:51:16.586Z,25.60
2019-04-22T17:56:08.656Z,25.80
2019-04-22T17:58:44.997Z,26.00
2019-04-22T18:01:09.340Z,26.10
2019-04-22T18:03:22.664Z,26.10
2019-04-22T18:05:48.018Z,26.20
2019-04-22T18:08:31.558Z,26.20
2019-04-22T18:10:59.934Z,26.30
2019-04-22T18:13:33.525Z,26.50
2019-04-22T18:16:00.533Z,26.50
2019-04-22T18:18:23.410Z,26.60
2019-04-22T18:20:45.841Z,26.80
2019-04-22T18:23:09.114Z,26.80
2019-04-22T18:25:44.990Z,26.80
2019-04-22T18:28:22.211Z,27.00
2019-04-22T18:30:34.653Z,27.10
2019-04-22T18:33:12.977Z,27.20
2019-04-22T18:35:35.226Z,27.30
2019-04-22T18:38:07.700Z,27.40
2019-04-22T18:40:37.283Z,27.50
2019-04-22T18:43:03.699Z,27.70
2019-04-22T18:45:54.901Z,27.60
2019-04-22T18:47:55.478Z,27.80
2019-04-22T18:50:53.367Z,27.80
2019-04-22T18:53:25.193Z,27.90
2019-04-22T18:56:03.910Z,28.00
2019-04-22T18:58:27.525Z,28.10
2019-04-22T19:00:44.034Z,28.20
2019-04-22T19:03:22.687Z,28.40
2019-04-22T19:06:26.856Z,28.40
2019-04-22T19:08:43.341Z,28.50
2019-04-22T19:11:12.666Z,28.70
2019-04-22T19:18:39.189Z,29.00
2019-04-22T19:21:07.884Z,28.90
2019-04-22T19:23:35.384Z,29.50
2019-04-22T19:25:59.721Z,29.10
2019-04-22T19:31:02.701Z,29.30
2019-04-22T19:33:29.036Z,29.50
2019-04-22T19:35:49.173Z,29.50
2019-04-22T19:38:14.370Z,29.50
2019-04-22T19:41:02.491Z,29.50
2019-04-22T19:43:22.915Z,29.60
2019-04-22T19:45:39.842Z,29.70
2019-04-22T19:48:25.399Z,29.80
2019-04-22T19:50:52.713Z,29.80
2019-04-22T19:53:20.597Z,30.00
2019-04-22T19:55:45.089Z,30.00
2019-04-22T19:58:07.275Z,30.00
2019-04-22T20:00:36.467Z,30.00
2019-04-22T20:03:21.711Z,30.20
2019-04-22T20:05:59.487Z,30.30
2019-04-22T20:08:32.237Z,30.40
2019-04-22T20:11:01.718Z,30.40
2019-04-22T20:13:33.867Z,30.60
2019-04-22T20:15:47.400Z,30.60
2019-04-22T20:20:58.493Z,30.80
2019-04-22T20:23:14.418Z,30.90
2019-04-22T20:25:45.992Z,31.10
2019-04-22T20:28:19.481Z,31.20
2019-04-22T20:30:45.830Z,31.20
2019-04-22T20:33:10.733Z,31.40
2019-04-22T20:35:44.835Z,31.50
2019-04-22T20:38:09.275Z,31.60
2019-04-22T20:40:40.086Z,31.60
2019-04-22T20:43:13.717Z,31.70
2019-04-22T20:45:35.162Z,31.80
2019-04-22T20:47:53.888Z,31.80
2019-04-22T20:50:35.411Z,31.90
2019-04-22T20:53:08.627Z,32.00
2019-04-22T20:55:25.437Z,32.10
2019-04-22T20:57:59.082Z,32.20
2019-04-22T21:02:46.617Z,31.80
2019-04-22T21:05:19.622Z,32.40
2019-04-22T21:08:01.456Z,32.50
2019-04-22T21:10:15.858Z,32.60
2019-04-22T21:12:39.747Z,32.70
2019-04-22T21:15:25.530Z,32.90
2019-04-22T21:17:48.865Z,32.90
2019-04-22T21:20:17.327Z,33.10
2019-04-22T21:22:43.672Z,33.10
2019-04-22T21:25:07.538Z,33.20
2019-04-22T21:27:40.652Z,33.30
2019-04-22T21:29:58.666Z,33.40
2019-04-22T21:32:34.363Z,33.40
2019-04-22T21:35:06.514Z,33.60
2019-04-22T21:37:37.759Z,33.70
2019-04-22T21:39:54.569Z,33.80
2019-04-22T21:42:26.572Z,33.90
2019-04-22T21:44:54.127Z,34.10
2019-04-22T21:47:28.720Z,34.10
2019-04-22T21:50:04.654Z,34.30
2019-04-22T21:52:24.836Z,34.30
2019-04-22T21:54:57.397Z,34.50
2019-04-22T21:57:30.794Z,34.60
2019-04-22T21:59:56.416Z,34.80
2019-04-22T22:02:28.410Z,34.70
2019-04-22T22:04:47.278Z,34.90
2019-04-22T22:07:07.487Z,35.00
2019-04-22T22:09:47.510Z,35.10
2019-04-22T22:12:10.411Z,35.20
2019-04-22T22:14:46.021Z,35.30
2019-04-22T22:17:07.337Z,35.50
2019-04-22T22:19:42.350Z,35.50
2019-04-22T22:22:25.410Z,35.50
2019-04-22T22:24:41.615Z,35.70
2019-04-22T22:27:06.235Z,35.70
2019-04-22T22:29:43.609Z,35.90
2019-04-22T22:32:06.511Z,36.00
2019-04-22T22:34:29.618Z,36.10
2019-04-22T22:36:50.787Z,36.20
2019-04-22T22:39:23.203Z,36.40
2019-04-22T22:41:37.549Z,36.50
2019-04-22T22:44:14.117Z,36.60
2019-04-22T22:46:43.727Z,36.70
2019-04-22T22:49:22.961Z,36.80
2019-04-22T22:52:09.951Z,37.00
2019-04-22T22:54:18.442Z,37.10
2019-04-22T22:56:55.548Z,37.10
2019-04-22T22:59:18.095Z,37.20
2019-04-22T23:01:39.600Z,37.30
2019-04-22T23:04:18.009Z,37.40
2019-04-22T23:06:39.081Z,37.40
2019-04-22T23:09:10.198Z,37.50
2019-04-22T23:11:52.065Z,37.60
2019-04-22T23:14:02.409Z,37.70
2019-04-22T23:18:57.601Z,37.30
2019-04-22T23:21:31.317Z,37.90
2019-04-22T23:24:14.531Z,37.80
2019-04-22T23:26:48.506Z,38.00
2019-04-22T23:29:25.437Z,38.10
2019-04-22T23:31:48.692Z,38.30
2019-04-22T23:34:22.720Z,38.20
2019-04-22T23:36:52.549Z,38.40
2019-04-22T23:39:30.696Z,38.50
2019-04-22T23:41:58.527Z,38.60
2019-04-22T23:46:48.885Z,38.70
2019-04-22T23:49:18.121Z,38.80
2019-04-22T23:51:55.674Z,38.90
2019-04-22T23:54:20.441Z,39.00
2019-04-22T23:56:43.515Z,39.10
2019-04-22T23:59:22.951Z,39.10
